Aérodrome :
LOGIN :

S'inscrire | Disclaimer

   EN    FR    IT 

 










Légende :    VFR   VFR Marginal   IFR   IFR Intensif   IFR Très Intensif
Visi : 
Plafond : 
>= 8 km
>= 3000ft
5 à 8 km
1000 à 3000 ft
1500m à 5 km
500 à 1000 ft
800 à 1500m
200 à 500 ft
< 800m
< 200 ft
Symboles :   Orages  Brouillard  Fortes neiges  Fortes précipitations  Vent > 20 kt
SIGMETs :   Divers  Orages  Givrage  Turbulence  Onde Orograph.  Cendres Volcan.






- Altitude de l'aérodrome : 416 ft
- Code IATA : OVD


LEAS - Asturias

DERNIER METAR :
  • 150230Z AUTO 32013KT 280V360 9999 FEW069 13/11 Q1008

METARs EXPIRÉS :
  • 150200Z AUTO 33013KT 290V020 CAVOK 14/10 Q1008
  • 150130Z AUTO 26013G23KT 200V300 CAVOK 17/07 Q1007
  • 150100Z AUTO 24010KT 210V280 CAVOK 17/07 Q1007
  • 150030Z AUTO 25014KT 220V280 CAVOK 17/07 Q1007

TAF TAF LEAS
Valide du 15 à 03h jusqu'au 16 à 03h UTC


150200Z 1503/1603 27010KT 9999 SCT056 TX11/1503Z TN09/1603Z
TEMPO 1503/1512 28015G25KT 3000 RA BKN010
BECMG 1515/1518 18009KT



MET'MAP, la Météo Aéronautique d'un coup d'oeil ! - Copyright ORBIFLY Décembre 2007 - Disclaimer

ORBIFLY MET'MAP TEAM :

Programmation & Développement : Alexandra Zaïnal
Sur une idée originale de : Baudouin d'Aumeries
Assistance à la programmation : Marc-Olivier Méhu
Soutien technique & logistique : Manuel Goepfert

Contact : metmap@orbifly.com




SOURCES & CREDITS :

   NOAA